createdAt,value
2023-03-18T00:00:46.885Z,0
2023-03-18T00:01:46.888Z,0
2023-03-18T00:02:46.952Z,0
2023-03-18T00:03:46.924Z,0
2023-03-18T00:04:46.873Z,0
2023-03-18T00:05:46.874Z,0
2023-03-18T00:06:46.875Z,0
2023-03-18T00:07:46.897Z,0
2023-03-18T00:08:46.870Z,0
2023-03-18T00:09:46.865Z,0
2023-03-18T00:10:46.863Z,0
2023-03-18T00:11:46.880Z,0
2023-03-18T00:12:46.883Z,0
2023-03-18T00:13:46.880Z,0
2023-03-18T00:14:46.872Z,0
2023-03-18T00:15:46.909Z,0
2023-03-18T00:16:46.883Z,0
2023-03-18T00:17:46.876Z,0
2023-03-18T00:18:46.864Z,0
2023-03-18T00:19:46.862Z,0
2023-03-18T00:20:46.877Z,0
2023-03-18T00:21:46.877Z,0
2023-03-18T00:22:46.961Z,0
2023-03-18T00:23:46.878Z,0
2023-03-18T00:24:46.869Z,0
2023-03-18T00:25:46.888Z,0
2023-03-18T00:26:46.885Z,0
2023-03-18T00:27:46.886Z,0
2023-03-18T00:28:46.881Z,0
2023-03-18T00:29:46.873Z,0
2023-03-18T00:30:46.873Z,0
2023-03-18T00:31:46.875Z,0
2023-03-18T00:32:46.968Z,0
2023-03-18T00:33:46.871Z,0
2023-03-18T00:34:46.878Z,0
2023-03-18T00:35:46.930Z,0
2023-03-18T00:36:46.874Z,0
2023-03-18T00:37:46.878Z,0
2023-03-18T00:38:46.875Z,0
2023-03-18T00:39:46.870Z,0
2023-03-18T00:40:46.877Z,0
2023-03-18T00:41:46.873Z,0
2023-03-18T00:42:46.904Z,0
2023-03-18T00:43:47.076Z,0
2023-03-18T00:44:46.883Z,0
2023-03-18T00:45:46.863Z,0
2023-03-18T00:46:46.922Z,0
2023-03-18T00:47:46.890Z,0
2023-03-18T00:48:46.886Z,0
2023-03-18T00:49:46.870Z,0
2023-03-18T00:50:46.882Z,0
2023-03-18T00:51:46.882Z,0
2023-03-18T00:52:46.901Z,0
2023-03-18T00:53:46.863Z,0
2023-03-18T00:54:46.875Z,0
2023-03-18T00:55:46.870Z,0
2023-03-18T00:56:46.894Z,0
2023-03-18T00:57:46.878Z,0
2023-03-18T00:58:46.882Z,0
2023-03-18T00:59:46.876Z,0
2023-03-18T01:00:46.960Z,0
2023-03-18T01:01:46.900Z,0
2023-03-18T01:02:46.890Z,0
2023-03-18T01:03:46.884Z,0
2023-03-18T01:04:46.879Z,0
2023-03-18T01:05:46.868Z,0
2023-03-18T01:06:46.877Z,0
2023-03-18T01:07:46.880Z,0
2023-03-18T01:08:46.880Z,0
2023-03-18T01:09:46.882Z,0
2023-03-18T01:10:46.878Z,0
2023-03-18T01:11:46.888Z,0
2023-03-18T01:12:46.879Z,0
2023-03-18T01:13:46.875Z,0
2023-03-18T01:14:46.889Z,0
2023-03-18T01:15:46.878Z,0
2023-03-18T01:16:47.058Z,0
2023-03-18T01:17:46.919Z,0
2023-03-18T01:18:46.889Z,0
2023-03-18T01:19:46.868Z,0
2023-03-18T01:20:46.873Z,0
2023-03-18T01:21:46.868Z,0
2023-03-18T01:22:46.894Z,0
2023-03-18T01:23:46.869Z,0
2023-03-18T01:24:46.882Z,0
2023-03-18T01:25:46.869Z,0
2023-03-18T01:26:46.887Z,0
2023-03-18T01:27:46.892Z,0
2023-03-18T01:28:46.872Z,0
2023-03-18T01:29:46.875Z,0
2023-03-18T01:30:46.867Z,0
2023-03-18T01:31:46.912Z,0
2023-03-18T01:32:46.931Z,0
2023-03-18T01:33:46.882Z,0
2023-03-18T01:34:46.883Z,0
2023-03-18T01:35:46.953Z,0
2023-03-18T01:36:46.875Z,0
2023-03-18T01:37:46.913Z,0
2023-03-18T01:38:46.883Z,0
2023-03-18T01:39:46.863Z,0
2023-03-18T01:40:46.869Z,0
2023-03-18T01:41:46.881Z,0
2023-03-18T01:42:46.880Z,0
2023-03-18T01:43:46.869Z,0
2023-03-18T01:44:46.881Z,0
2023-03-18T01:45:47.055Z,0
2023-03-18T01:46:46.872Z,0
2023-03-18T01:47:46.894Z,0
2023-03-18T01:48:46.874Z,0
2023-03-18T01:49:46.867Z,0
2023-03-18T01:50:46.862Z,0
2023-03-18T01:51:46.873Z,0
2023-03-18T01:52:46.877Z,0
2023-03-18T01:53:46.865Z,0
2023-03-18T01:54:46.885Z,0
2023-03-18T01:55:46.877Z,0
2023-03-18T01:56:46.869Z,0
2023-03-18T01:57:46.882Z,0
2023-03-18T01:58:46.866Z,0
2023-03-18T01:59:46.863Z,0
2023-03-18T02:00:46.902Z,0
2023-03-18T02:01:46.864Z,0
2023-03-18T02:02:46.891Z,0
2023-03-18T02:03:46.867Z,0
2023-03-18T02:04:46.866Z,0
2023-03-18T02:05:46.872Z,0
2023-03-18T02:06:46.880Z,0
2023-03-18T02:07:46.886Z,0
2023-03-18T02:08:46.880Z,0
2023-03-18T02:09:46.905Z,0
2023-03-18T02:10:46.874Z,0
2023-03-18T02:11:46.872Z,0
2023-03-18T02:12:46.893Z,0
2023-03-18T02:13:46.896Z,0
2023-03-18T02:14:46.884Z,0
2023-03-18T02:15:46.885Z,0
2023-03-18T02:16:46.905Z,0
2023-03-18T02:17:46.916Z,0
2023-03-18T02:18:46.882Z,0
2023-03-18T02:19:46.866Z,0
2023-03-18T02:20:46.870Z,0
2023-03-18T02:21:46.868Z,0
2023-03-18T02:22:46.913Z,0
2023-03-18T02:23:46.870Z,0
2023-03-18T02:24:46.869Z,0
2023-03-18T02:25:46.878Z,0
2023-03-18T02:26:46.880Z,0
2023-03-18T02:27:46.895Z,0
2023-03-18T02:28:46.893Z,0
2023-03-18T02:29:46.876Z,0
2023-03-18T02:30:46.900Z,0
2023-03-18T02:31:46.884Z,0
2023-03-18T02:32:47.033Z,0
2023-03-18T02:33:47.914Z,0
2023-03-18T02:34:46.867Z,0
2023-03-18T02:35:46.878Z,0
2023-03-18T02:36:46.878Z,0
2023-03-18T02:37:46.878Z,0
2023-03-18T02:38:46.869Z,0
2023-03-18T02:39:46.876Z,0
2023-03-18T02:40:46.876Z,0
2023-03-18T02:41:46.873Z,0
2023-03-18T02:42:46.910Z,0
2023-03-18T02:43:46.888Z,0
2023-03-18T02:44:46.884Z,0
2023-03-18T02:45:46.888Z,0
2023-03-18T02:46:46.912Z,0
2023-03-18T02:47:46.888Z,0
2023-03-18T02:48:46.875Z,0
2023-03-18T02:49:46.873Z,0
2023-03-18T02:50:46.882Z,0
2023-03-18T02:51:46.880Z,0
2023-03-18T02:52:46.877Z,0
2023-03-18T02:53:46.870Z,0
2023-03-18T02:54:46.880Z,0
2023-03-18T02:55:46.873Z,0
2023-03-18T02:56:46.875Z,0
2023-03-18T02:57:46.893Z,0
2023-03-18T02:58:46.876Z,0
2023-03-18T02:59:46.897Z,0
2023-03-18T03:00:46.884Z,0
2023-03-18T03:01:46.932Z,0
2023-03-18T03:02:46.978Z,0
2023-03-18T03:03:46.879Z,0
2023-03-18T03:04:46.882Z,0
2023-03-18T03:05:46.883Z,0
2023-03-18T03:06:46.883Z,0
2023-03-18T03:07:46.892Z,0
2023-03-18T03:08:46.879Z,0
2023-03-18T03:09:46.888Z,0
2023-03-18T03:10:46.883Z,0
2023-03-18T03:11:46.880Z,0
2023-03-18T03:12:46.893Z,0
2023-03-18T03:13:46.886Z,0
2023-03-18T03:14:46.917Z,0
2023-03-18T03:15:46.942Z,0
2023-03-18T03:16:46.884Z,0
2023-03-18T03:17:46.901Z,0
2023-03-18T03:18:46.878Z,0
2023-03-18T03:19:46.885Z,0
2023-03-18T03:20:46.882Z,0
2023-03-18T03:21:46.889Z,0
2023-03-18T03:22:46.888Z,0
2023-03-18T03:23:46.870Z,0
2023-03-18T03:24:46.891Z,0
2023-03-18T03:25:46.878Z,0
2023-03-18T03:26:46.883Z,0
2023-03-18T03:27:46.892Z,0
2023-03-18T03:28:46.880Z,0
2023-03-18T03:29:46.883Z,0
2023-03-18T03:30:46.959Z,0
2023-03-18T03:31:46.878Z,0
2023-03-18T03:32:46.924Z,0
2023-03-18T03:33:46.880Z,0
2023-03-18T03:34:46.886Z,0
2023-03-18T03:35:46.896Z,0
2023-03-18T03:36:46.879Z,0
2023-03-18T03:37:46.896Z,0
2023-03-18T03:38:46.891Z,0
2023-03-18T03:39:46.885Z,0
2023-03-18T03:40:46.894Z,0
2023-03-18T03:41:46.872Z,0
2023-03-18T03:42:46.893Z,0
2023-03-18T03:43:46.875Z,0
2023-03-18T03:44:46.887Z,0
2023-03-18T03:45:46.876Z,0
2023-03-18T03:46:46.965Z,0
2023-03-18T03:47:46.898Z,0
2023-03-18T03:48:46.873Z,0
2023-03-18T03:49:46.883Z,0
2023-03-18T03:50:46.880Z,0
2023-03-18T03:51:46.879Z,0
2023-03-18T03:52:46.896Z,0
2023-03-18T03:53:46.873Z,0
2023-03-18T03:54:46.874Z,0
2023-03-18T03:55:46.886Z,0
2023-03-18T03:56:46.864Z,0
2023-03-18T03:57:46.885Z,0
2023-03-18T03:58:46.878Z,0
2023-03-18T03:59:46.885Z,0
2023-03-18T04:00:46.875Z,0
2023-03-18T04:01:46.868Z,0
2023-03-18T04:02:46.946Z,0
2023-03-18T04:03:46.907Z,0
2023-03-18T04:04:46.887Z,0
2023-03-18T04:05:46.884Z,0
2023-03-18T04:06:46.877Z,0
2023-03-18T04:07:46.893Z,0
2023-03-18T04:08:46.881Z,0
2023-03-18T04:09:46.878Z,0
2023-03-18T04:10:46.877Z,0
2023-03-18T04:11:46.879Z,0
2023-03-18T04:12:46.897Z,0
2023-03-18T04:13:46.867Z,0
2023-03-18T04:14:46.876Z,0
2023-03-18T04:15:46.924Z,0
2023-03-18T04:16:46.884Z,0
2023-03-18T04:17:46.897Z,0
2023-03-18T04:18:46.879Z,0
2023-03-18T04:19:46.888Z,0
2023-03-18T04:20:46.878Z,0
2023-03-18T04:21:46.880Z,0
2023-03-18T04:22:46.889Z,0
2023-03-18T04:23:46.867Z,0
2023-03-18T04:24:46.903Z,0
2023-03-18T04:25:46.871Z,0
2023-03-18T04:26:46.952Z,0
2023-03-18T04:27:46.888Z,0
2023-03-18T04:28:46.897Z,0
2023-03-18T04:29:46.867Z,0
2023-03-18T04:30:46.877Z,0
2023-03-18T04:31:46.974Z,0
2023-03-18T04:32:46.935Z,0
2023-03-18T04:33:46.875Z,0
2023-03-18T04:34:46.872Z,0
2023-03-18T04:35:46.962Z,0
2023-03-18T04:36:46.879Z,0
2023-03-18T04:37:46.885Z,0
2023-03-18T04:38:46.882Z,0
2023-03-18T04:39:46.877Z,0
2023-03-18T04:40:46.880Z,0
2023-03-18T04:41:46.876Z,0
2023-03-18T04:42:47.051Z,0
2023-03-18T04:43:46.874Z,0
2023-03-18T04:44:46.897Z,0
2023-03-18T04:45:46.878Z,0
2023-03-18T04:46:46.894Z,0
2023-03-18T04:47:46.892Z,0
2023-03-18T04:48:46.886Z,0
2023-03-18T04:49:46.881Z,0
2023-03-18T04:50:46.885Z,0
2023-03-18T04:51:46.883Z,0
2023-03-18T04:52:46.884Z,0
2023-03-18T04:53:46.879Z,0
2023-03-18T04:54:46.882Z,0
2023-03-18T04:55:46.875Z,0
2023-03-18T04:56:46.884Z,0
2023-03-18T04:57:46.903Z,0.01
2023-03-18T04:58:46.881Z,0.01
2023-03-18T04:59:46.879Z,0.01
2023-03-18T05:00:46.951Z,0.01
2023-03-18T05:01:46.884Z,0.01
2023-03-18T05:02:46.903Z,0.01
2023-03-18T05:03:46.937Z,0.01
2023-03-18T05:04:46.876Z,0.01
2023-03-18T05:05:46.870Z,0.02
2023-03-18T05:06:46.878Z,0.02
2023-03-18T05:07:46.898Z,0.02
2023-03-18T05:08:46.858Z,0.02
2023-03-18T05:09:46.872Z,0.03
2023-03-18T05:10:46.881Z,0.03
2023-03-18T05:11:46.907Z,0.03
2023-03-18T05:12:46.886Z,0.03
2023-03-18T05:13:46.872Z,0.04
2023-03-18T05:14:46.879Z,0.04
2023-03-18T05:15:46.874Z,0.05
2023-03-18T05:16:46.942Z,0.05
2023-03-18T05:17:46.885Z,0.06
2023-03-18T05:18:46.891Z,0.06
2023-03-18T05:19:46.879Z,0.07
2023-03-18T05:20:46.874Z,0.07
2023-03-18T05:21:46.872Z,0.08
2023-03-18T05:22:46.908Z,0.09
2023-03-18T05:23:46.878Z,0.1
2023-03-18T05:24:46.888Z,0.1
2023-03-18T05:25:46.885Z,0.11
2023-03-18T05:26:46.951Z,0.12
2023-03-18T05:27:46.879Z,0.13
2023-03-18T05:28:46.882Z,0.14
2023-03-18T05:29:46.881Z,0.15
2023-03-18T05:30:46.880Z,0.16
2023-03-18T05:31:46.934Z,0.17
2023-03-18T05:32:46.927Z,0.18
2023-03-18T05:33:46.900Z,0.19
2023-03-18T05:34:46.873Z,0.2
2023-03-18T05:35:46.889Z,0.21
2023-03-18T05:36:46.883Z,0.22
2023-03-18T05:37:46.901Z,0.23
2023-03-18T05:38:46.883Z,0.25
2023-03-18T05:39:46.903Z,0.26
2023-03-18T05:40:46.872Z,0.27
2023-03-18T05:41:46.875Z,0.29
2023-03-18T05:42:55.704Z,0.3
2023-03-18T05:43:46.868Z,0.32
2023-03-18T05:44:46.893Z,0.33
2023-03-18T05:45:46.984Z,0.34
2023-03-18T05:46:46.868Z,0.36
2023-03-18T05:47:46.895Z,0.37
2023-03-18T05:48:46.877Z,0.37
2023-03-18T05:49:46.876Z,0.39
2023-03-18T05:50:46.890Z,0.4
2023-03-18T05:51:46.879Z,0.41
2023-03-18T05:52:46.889Z,0.42
2023-03-18T05:53:46.871Z,0.44
2023-03-18T05:54:46.876Z,0.45
2023-03-18T05:55:46.876Z,0.46
2023-03-18T05:56:46.880Z,0.48
2023-03-18T05:57:46.910Z,0.49
2023-03-18T05:58:46.880Z,0.51
2023-03-18T05:59:46.870Z,0.52
2023-03-18T06:00:46.879Z,0.55
2023-03-18T06:01:46.887Z,0.59
2023-03-18T06:02:46.884Z,0.68
2023-03-18T06:03:46.990Z,0.83
2023-03-18T06:04:46.879Z,0.94
2023-03-18T06:05:46.875Z,0.96
2023-03-18T06:06:46.887Z,1
2023-03-18T06:07:46.891Z,1
2023-03-18T06:08:46.878Z,0.9
2023-03-18T06:09:46.877Z,0.94
2023-03-18T06:10:46.874Z,1.02
2023-03-18T06:11:46.874Z,1.2
2023-03-18T06:12:46.907Z,1.26
2023-03-18T06:13:46.878Z,1.29
2023-03-18T06:14:46.880Z,1.26
2023-03-18T06:15:47.680Z,1.24
2023-03-18T06:16:46.930Z,1.1
2023-03-18T06:17:46.899Z,1.26
2023-03-18T06:18:46.876Z,1.21
2023-03-18T06:19:46.879Z,1.13
2023-03-18T06:20:46.872Z,0.98
2023-03-18T06:21:46.872Z,0.96
2023-03-18T06:22:46.893Z,0.98
2023-03-18T06:23:46.898Z,1.03
2023-03-18T06:24:48.387Z,0.94
2023-03-18T06:25:46.883Z,0.94
2023-03-18T06:26:46.880Z,1.04
2023-03-18T06:27:46.891Z,1.1
2023-03-18T06:28:46.886Z,1.07
2023-03-18T06:29:46.881Z,1.06
2023-03-18T06:30:46.996Z,1.09
2023-03-18T06:31:46.880Z,1.1
2023-03-18T06:32:46.890Z,1.06
2023-03-18T06:33:46.876Z,1.13
2023-03-18T06:34:46.875Z,1.15
2023-03-18T06:35:46.907Z,1.14
2023-03-18T06:36:46.881Z,1.13
2023-03-18T06:37:46.908Z,1.18
2023-03-18T06:38:46.873Z,1.19
2023-03-18T06:39:46.877Z,1.17
2023-03-18T06:40:46.869Z,1.17
2023-03-18T06:41:46.874Z,1.19
2023-03-18T06:42:46.910Z,1.17
2023-03-18T06:43:46.879Z,1.18
2023-03-18T06:44:46.889Z,1.2
2023-03-18T06:45:46.879Z,1.22
2023-03-18T06:46:46.878Z,1.24
2023-03-18T06:47:46.906Z,1.25
2023-03-18T06:48:46.893Z,1.28
2023-03-18T06:49:46.899Z,1.3
2023-03-18T06:50:46.879Z,1.29
2023-03-18T06:51:46.887Z,1.29
2023-03-18T06:52:46.891Z,1.36
2023-03-18T06:53:46.878Z,1.38
2023-03-18T06:54:46.890Z,1.41
2023-03-18T06:55:46.882Z,1.44
2023-03-18T06:56:46.898Z,1.48
2023-03-18T06:57:46.895Z,1.54
2023-03-18T06:58:46.891Z,1.62
2023-03-18T06:59:46.888Z,1.7
2023-03-18T07:00:46.951Z,1.73
2023-03-18T07:01:46.925Z,1.75
2023-03-18T07:02:46.889Z,1.71
2023-03-18T07:03:46.873Z,1.72
2023-03-18T07:04:46.960Z,1.78
2023-03-18T07:05:46.883Z,1.85
2023-03-18T07:06:46.873Z,1.88
2023-03-18T07:07:46.959Z,1.88
2023-03-18T07:08:46.865Z,2.06
2023-03-18T07:09:46.884Z,2.08
2023-03-18T07:10:46.872Z,2.22
2023-03-18T07:11:46.873Z,2.64
2023-03-18T07:12:46.884Z,2.8
2023-03-18T07:13:46.876Z,2.82
2023-03-18T07:14:46.872Z,2.91
2023-03-18T07:15:46.964Z,2.95
2023-03-18T07:16:46.885Z,2.68
2023-03-18T07:17:46.888Z,2.45
2023-03-18T07:18:46.887Z,2.5
2023-03-18T07:19:46.873Z,2.89
2023-03-18T07:20:46.877Z,3.03
2023-03-18T07:21:46.877Z,3.09
2023-03-18T07:22:46.910Z,3.01
2023-03-18T07:23:46.884Z,2.96
2023-03-18T07:24:46.883Z,3.09
2023-03-18T07:25:46.976Z,3.25
2023-03-18T07:26:46.862Z,3.18
2023-03-18T07:27:46.885Z,3.21
2023-03-18T07:28:46.872Z,3.22
2023-03-18T07:29:46.881Z,3.78
2023-03-18T07:30:46.924Z,4.14
2023-03-18T07:31:46.877Z,4.22
2023-03-18T07:32:46.930Z,3.77
2023-03-18T07:33:46.939Z,3.49
2023-03-18T07:34:46.874Z,3.6
2023-03-18T07:35:46.954Z,3.81
2023-03-18T07:36:46.956Z,3.91
2023-03-18T07:37:46.886Z,3.77
2023-03-18T07:38:46.874Z,3.83
2023-03-18T07:39:46.878Z,3.46
2023-03-18T07:40:46.885Z,3.26
2023-03-18T07:41:46.875Z,3.47
2023-03-18T07:42:47.046Z,3.91
2023-03-18T07:43:46.883Z,4.29
2023-03-18T07:44:46.871Z,4.14
2023-03-18T07:45:46.898Z,3.96
2023-03-18T07:46:46.982Z,3.85
2023-03-18T07:47:47.358Z,3.67
2023-03-18T07:48:46.875Z,3.45
2023-03-18T07:49:46.876Z,3.4
2023-03-18T07:50:46.880Z,3.54
2023-03-18T07:51:46.876Z,3.95
2023-03-18T07:52:46.904Z,3.81
2023-03-18T07:53:46.881Z,3.64
2023-03-18T07:54:46.873Z,4.03
2023-03-18T07:55:46.864Z,3.63
2023-03-18T07:56:46.947Z,3.48
2023-03-18T07:57:46.911Z,3.83
2023-03-18T07:58:46.884Z,4.45
2023-03-18T07:59:46.872Z,4.38
2023-03-18T08:00:46.883Z,4.22
2023-03-18T08:01:46.901Z,3.96
2023-03-18T08:02:46.889Z,3.69
2023-03-18T08:03:46.952Z,3.32
2023-03-18T08:04:46.984Z,3.28
2023-03-18T08:05:46.876Z,3.24
2023-03-18T08:06:46.879Z,3.22
2023-03-18T08:07:46.908Z,3.22
2023-03-18T08:08:46.870Z,3.2
2023-03-18T08:09:46.903Z,2.87
2023-03-18T08:10:46.878Z,2.66
2023-03-18T08:11:47.044Z,2.55
2023-03-18T08:12:53.109Z,2.64
2023-03-18T08:13:46.873Z,3.05
2023-03-18T08:14:46.881Z,3.44
2023-03-18T08:15:46.877Z,3.6
2023-03-18T08:16:46.875Z,3.5
2023-03-18T08:17:46.888Z,3.3
2023-03-18T08:18:46.919Z,3.21
2023-03-18T08:19:46.880Z,3.44
2023-03-18T08:20:46.877Z,3.64
2023-03-18T08:21:46.884Z,3.28
2023-03-18T08:22:46.900Z,3.07
2023-03-18T08:23:46.873Z,2.95
2023-03-18T08:24:46.877Z,3.02
2023-03-18T08:25:46.875Z,3.13
2023-03-18T08:26:46.872Z,3.48
2023-03-18T08:27:46.889Z,3.59
2023-03-18T08:28:46.876Z,3.38
2023-03-18T08:29:46.890Z,3.31
2023-03-18T08:30:46.923Z,3.16
2023-03-18T08:31:47.016Z,3.22
2023-03-18T08:32:46.894Z,3.93
2023-03-18T08:33:46.878Z,5.01
2023-03-18T08:34:46.891Z,5.3
2023-03-18T08:35:46.909Z,5.67
2023-03-18T08:36:46.885Z,5.96
2023-03-18T08:37:46.894Z,6.2
2023-03-18T08:38:46.874Z,6.14
2023-03-18T08:39:46.880Z,5.21
2023-03-18T08:40:46.873Z,6.38
2023-03-18T08:41:46.877Z,6.3
2023-03-18T08:42:46.904Z,5.79
2023-03-18T08:43:46.885Z,5.9
2023-03-18T08:44:46.884Z,6.11
2023-03-18T08:45:46.912Z,6.93
2023-03-18T08:46:46.873Z,7.31
2023-03-18T08:47:46.888Z,7.05
2023-03-18T08:48:46.879Z,7.08
2023-03-18T08:49:46.890Z,6.9
2023-03-18T08:50:46.880Z,7.29
2023-03-18T08:51:46.919Z,6.82
2023-03-18T08:52:46.894Z,6.4
2023-03-18T08:53:46.881Z,6.75
2023-03-18T08:54:46.894Z,6.66
2023-03-18T08:55:46.888Z,6.8
2023-03-18T08:56:46.870Z,7.02
2023-03-18T08:57:46.886Z,6.7
2023-03-18T08:58:46.879Z,6.21
2023-03-18T08:59:46.884Z,5.94
2023-03-18T09:00:47.025Z,5.89
2023-03-18T09:01:46.886Z,5.88
2023-03-18T09:02:46.899Z,6.05
2023-03-18T09:03:46.968Z,5.52
2023-03-18T09:04:46.889Z,5.1
2023-03-18T09:05:46.893Z,5.14
2023-03-18T09:06:46.884Z,4.98
2023-03-18T09:07:46.894Z,4.98
2023-03-18T09:08:46.875Z,4.47
2023-03-18T09:09:46.907Z,5.48
2023-03-18T09:10:46.876Z,5.38
2023-03-18T09:11:46.885Z,5.43
2023-03-18T09:12:46.898Z,5.21
2023-03-18T09:13:46.877Z,5.34
2023-03-18T09:14:46.893Z,5.29
2023-03-18T09:15:46.865Z,6.26
2023-03-18T09:16:46.956Z,6.95
2023-03-18T09:17:56.572Z,7.34
2023-03-18T09:18:48.797Z,7.87
2023-03-18T09:19:46.873Z,7.45
2023-03-18T09:20:46.870Z,6.9
2023-03-18T09:21:46.875Z,6.39
2023-03-18T09:22:46.899Z,6.55
2023-03-18T09:23:46.875Z,6.59
2023-03-18T09:24:46.865Z,6.93
2023-03-18T09:25:46.864Z,8.37
2023-03-18T09:26:46.871Z,8.06
2023-03-18T09:27:46.882Z,8.2
2023-03-18T09:28:46.874Z,7.96
2023-03-18T09:29:46.875Z,9.03
2023-03-18T09:30:46.960Z,9.27
2023-03-18T09:31:46.868Z,8.1
2023-03-18T09:32:46.978Z,7.69
2023-03-18T09:33:46.866Z,6.89
2023-03-18T09:34:46.873Z,6.44
2023-03-18T09:35:46.887Z,5.89
2023-03-18T09:36:46.862Z,6.58
2023-03-18T09:37:46.872Z,6.21
2023-03-18T09:38:46.870Z,7.13
2023-03-18T09:39:46.877Z,7.72
2023-03-18T09:40:46.867Z,5.47
2023-03-18T09:41:46.872Z,7.37
2023-03-18T09:42:47.040Z,7.29
2023-03-18T09:43:46.885Z,7.28
2023-03-18T09:44:46.933Z,7.38
2023-03-18T09:45:46.928Z,8.09
2023-03-18T09:46:47.081Z,8.07
2023-03-18T09:47:46.889Z,7.25
2023-03-18T09:48:46.910Z,6.84
2023-03-18T09:49:46.862Z,6.64
2023-03-18T09:50:46.868Z,6.7
2023-03-18T09:51:46.916Z,7.46
2023-03-18T09:52:46.885Z,7.62
2023-03-18T09:53:46.871Z,7.25
2023-03-18T09:54:46.859Z,6.88
2023-03-18T09:55:46.884Z,6.99
2023-03-18T09:56:46.863Z,7.67
2023-03-18T09:57:46.878Z,8.49
2023-03-18T09:58:46.866Z,8.67
2023-03-18T09:59:46.866Z,8.13
2023-03-18T10:00:46.869Z,8.55
2023-03-18T10:01:46.979Z,9.11
2023-03-18T10:02:46.894Z,9.69
2023-03-18T10:03:47.028Z,9.38
2023-03-18T10:04:46.865Z,8.34
2023-03-18T10:05:46.868Z,10.46
2023-03-18T10:06:46.864Z,8.29
2023-03-18T10:07:46.875Z,8.29
2023-03-18T10:08:46.865Z,8.81
2023-03-18T10:09:46.871Z,9.86
2023-03-18T10:10:46.863Z,11.49
2023-03-18T10:11:46.880Z,12.84
2023-03-18T10:12:46.885Z,13.6
2023-03-18T10:13:46.862Z,13.75
2023-03-18T10:14:46.861Z,13.31
2023-03-18T10:15:46.936Z,12.45
2023-03-18T10:16:46.880Z,11.67
2023-03-18T10:17:46.897Z,12.34
2023-03-18T10:18:46.865Z,11.32
2023-03-18T10:19:46.871Z,10.15
2023-03-18T10:20:46.863Z,10.05
2023-03-18T10:21:46.872Z,9.79
2023-03-18T10:22:46.900Z,9.97
2023-03-18T10:23:46.874Z,9.75
2023-03-18T10:24:46.860Z,8.55
2023-03-18T10:25:46.889Z,7.67
2023-03-18T10:26:46.860Z,7.15
2023-03-18T10:27:46.881Z,7.17
2023-03-18T10:28:46.866Z,7.17
2023-03-18T10:29:46.872Z,6.51
2023-03-18T10:30:46.894Z,6.06
2023-03-18T10:31:46.875Z,4.85
2023-03-18T10:32:50.351Z,4.93
2023-03-18T10:33:46.872Z,5.13
2023-03-18T10:34:46.868Z,5.98
2023-03-18T10:35:46.917Z,6.32
2023-03-18T10:36:46.867Z,7.09
2023-03-18T10:37:46.897Z,6.43
2023-03-18T10:38:46.886Z,6.21
2023-03-18T10:39:46.922Z,6.02
2023-03-18T10:40:46.881Z,5.76
2023-03-18T10:41:46.879Z,5.57
2023-03-18T10:42:46.900Z,5.9
2023-03-18T10:43:46.882Z,7.34
2023-03-18T10:44:46.877Z,6.92
2023-03-18T10:45:46.957Z,7.25
2023-03-18T10:46:46.963Z,6.18
2023-03-18T10:47:46.879Z,8.28
2023-03-18T10:48:46.895Z,9.82
2023-03-18T10:49:46.873Z,10.51
2023-03-18T10:50:46.876Z,8.82
2023-03-18T10:51:46.873Z,9.11
2023-03-18T10:52:46.883Z,8.04
2023-03-18T10:53:46.893Z,6.98
2023-03-18T10:54:46.870Z,7.13
2023-03-18T10:55:46.880Z,5.91
2023-03-18T10:56:46.883Z,6.51
2023-03-18T10:57:46.881Z,5.58
2023-03-18T10:58:46.868Z,5.5
2023-03-18T10:59:46.867Z,5.23
2023-03-18T11:00:46.893Z,5.36
2023-03-18T11:01:46.996Z,6.33
2023-03-18T11:02:46.914Z,5.78
2023-03-18T11:03:46.872Z,5.05
2023-03-18T11:04:46.865Z,5.07
2023-03-18T11:05:47.016Z,5.07
2023-03-18T11:06:46.880Z,5.74
2023-03-18T11:07:46.883Z,5.74
2023-03-18T11:08:46.874Z,5.74
2023-03-18T11:09:46.870Z,5.91
2023-03-18T11:10:46.881Z,5.97
2023-03-18T11:11:46.874Z,7.72
2023-03-18T11:12:46.899Z,8.56
2023-03-18T11:13:46.881Z,11.94
2023-03-18T11:14:46.878Z,12.06
2023-03-18T11:15:47.030Z,12.35
2023-03-18T11:16:46.862Z,13.43
2023-03-18T11:17:46.880Z,12.66
2023-03-18T11:18:46.877Z,7.85
2023-03-18T11:19:46.868Z,5.37
2023-03-18T11:20:46.869Z,11.66
2023-03-18T11:21:47.978Z,5.29
2023-03-18T11:22:46.881Z,4.89
2023-03-18T11:23:46.881Z,4.57
2023-03-18T11:24:46.888Z,5.37
2023-03-18T11:25:46.881Z,3.97
2023-03-18T11:26:47.452Z,3.88
2023-03-18T11:27:46.913Z,3.84
2023-03-18T11:28:46.872Z,4.07
2023-03-18T11:29:46.983Z,3.82
2023-03-18T11:30:46.871Z,3.55
2023-03-18T11:31:47.310Z,3.57
2023-03-18T11:32:46.933Z,3.53
2023-03-18T11:33:46.861Z,3.97
2023-03-18T11:34:46.993Z,4.03
2023-03-18T11:35:46.897Z,4.45
2023-03-18T11:36:46.872Z,4.41
2023-03-18T11:37:46.908Z,3.99
2023-03-18T11:38:47.154Z,4.97
2023-03-18T11:39:46.866Z,6.82
2023-03-18T11:40:47.297Z,7.68
2023-03-18T11:41:46.868Z,6.05
2023-03-18T11:42:46.920Z,5.33
2023-03-18T11:43:46.865Z,6.38
2023-03-18T11:44:46.873Z,5.39
2023-03-18T11:45:47.494Z,5.98
2023-03-18T11:46:46.951Z,6.54
2023-03-18T11:47:46.883Z,7.59
2023-03-18T11:48:46.866Z,8.02
2023-03-18T11:49:46.871Z,6.6
2023-03-18T11:50:46.864Z,6.82
2023-03-18T11:51:46.864Z,4.57
2023-03-18T11:52:46.882Z,4.09
2023-03-18T11:53:46.871Z,4.24
2023-03-18T11:54:46.863Z,5.03
2023-03-18T11:55:46.865Z,4.4
2023-03-18T11:56:47.201Z,4.8
2023-03-18T11:57:46.879Z,4.83
2023-03-18T11:58:46.867Z,4.23
2023-03-18T11:59:46.882Z,4.34
2023-03-18T12:00:46.869Z,5.18
2023-03-18T12:01:46.894Z,4.37
2023-03-18T12:02:46.879Z,3.95
2023-03-18T12:03:46.866Z,5.07
2023-03-18T12:04:46.903Z,4.29
2023-03-18T12:05:46.874Z,4.17
2023-03-18T12:06:46.866Z,4.05
2023-03-18T12:07:46.882Z,4.09
2023-03-18T12:08:46.863Z,4.09
2023-03-18T12:09:46.871Z,3.87
2023-03-18T12:10:46.874Z,3.59
2023-03-18T12:11:46.868Z,3.74
2023-03-18T12:12:46.882Z,4.07
2023-03-18T12:13:46.866Z,4
2023-03-18T12:14:46.880Z,4.25
2023-03-18T12:15:46.880Z,4.98
2023-03-18T12:16:46.996Z,4.7
2023-03-18T12:17:46.889Z,5.32
2023-03-18T12:18:46.870Z,5.22
2023-03-18T12:19:46.872Z,5.5
2023-03-18T12:20:46.860Z,5.93
2023-03-18T12:21:46.881Z,5.09
2023-03-18T12:22:46.880Z,4.25
2023-03-18T12:23:48.513Z,3.65
2023-03-18T12:24:46.870Z,4.05
2023-03-18T12:25:46.873Z,3.99
2023-03-18T12:26:46.867Z,4.18
2023-03-18T12:27:46.896Z,4.36
2023-03-18T12:28:46.879Z,4.28
2023-03-18T12:29:46.891Z,4.02
2023-03-18T12:30:46.870Z,4.32
2023-03-18T12:31:46.953Z,4.57
2023-03-18T12:32:46.921Z,3.79
2023-03-18T12:33:46.872Z,3.38
2023-03-18T12:34:46.877Z,3.36
2023-03-18T12:35:46.977Z,3.94
2023-03-18T12:36:46.872Z,3.83
2023-03-18T12:37:46.895Z,3.76
2023-03-18T12:38:46.868Z,3.58
2023-03-18T12:39:46.885Z,3.6
2023-03-18T12:40:46.878Z,3.39
2023-03-18T12:41:52.386Z,3.28
2023-03-18T12:42:51.317Z,3.58
2023-03-18T12:43:51.304Z,3.55
2023-03-18T12:44:51.266Z,3.45
2023-03-18T12:45:51.295Z,3.42
2023-03-18T12:46:51.278Z,3.28
2023-03-18T12:47:51.277Z,3.24
2023-03-18T12:48:51.280Z,3.16
2023-03-18T12:49:51.267Z,3.09
2023-03-18T12:50:51.268Z,3.16
2023-03-18T12:51:51.269Z,3.13
2023-03-18T12:52:51.294Z,3.08
2023-03-18T12:53:51.257Z,3.02
2023-03-18T12:54:51.268Z,3.08
2023-03-18T12:55:51.278Z,3.21
2023-03-18T12:56:52.114Z,3.36
2023-03-18T12:57:51.315Z,3.38
2023-03-18T12:58:51.270Z,3.57
2023-03-18T12:59:53.125Z,3.71
2023-03-18T13:00:51.378Z,3.79
2023-03-18T13:01:51.299Z,4
2023-03-18T13:02:51.319Z,4.13
2023-03-18T13:03:51.263Z,4.16
2023-03-18T13:04:52.694Z,4.23
2023-03-18T13:05:51.270Z,4.07
2023-03-18T13:06:51.276Z,3.95
2023-03-18T13:07:51.270Z,3.95
2023-03-18T13:08:51.277Z,3.63
2023-03-18T13:09:51.278Z,3.82
2023-03-18T13:10:51.362Z,3.95
2023-03-18T13:11:51.278Z,3.61
2023-03-18T13:12:51.325Z,3.69
2023-03-18T13:13:51.262Z,3.69
2023-03-18T13:14:51.269Z,3.69
2023-03-18T13:15:51.687Z,3.68
2023-03-18T13:16:51.323Z,3.8
2023-03-18T13:17:51.389Z,4.17
2023-03-18T13:18:51.263Z,4.43
2023-03-18T13:19:51.260Z,4.47
2023-03-18T13:20:51.262Z,4.6
2023-03-18T13:21:51.245Z,5
2023-03-18T13:22:51.269Z,5.69
2023-03-18T13:23:51.267Z,6.03
2023-03-18T13:24:51.270Z,5.93
2023-03-18T13:25:51.263Z,5.91
2023-03-18T13:26:51.264Z,6.31
2023-03-18T13:27:51.289Z,6.43
2023-03-18T13:28:51.254Z,5.98
2023-03-18T13:29:51.287Z,5.33
2023-03-18T13:30:51.273Z,4.9
2023-03-18T13:31:51.270Z,4.94
2023-03-18T13:32:51.286Z,5.13
2023-03-18T13:33:51.285Z,4.77
2023-03-18T13:34:51.804Z,4.75
2023-03-18T13:35:51.310Z,4.52
2023-03-18T13:36:51.690Z,4.49
2023-03-18T13:37:51.269Z,4.64
2023-03-18T13:38:51.260Z,4.52
2023-03-18T13:39:51.245Z,4.28
2023-03-18T13:40:51.257Z,4.66
2023-03-18T13:41:51.394Z,4.97
2023-03-18T13:42:51.274Z,5.23
2023-03-18T13:43:51.257Z,5.26
2023-03-18T13:44:51.313Z,5.2
2023-03-18T13:45:51.357Z,5.55
2023-03-18T13:46:51.251Z,5.27
2023-03-18T13:47:51.278Z,4.65
2023-03-18T13:48:51.268Z,4.86
2023-03-18T13:49:51.263Z,4.85